Time;durP1;ratioP1;P1;durP2;ratioP2;P2;SDS_P1;SDS_P2;PMS_P1;PMS_P2;Temp;Humidity;BMP_temperature;BMP_pressure;BME280_temperature;BME280_humidity;BME280_pressure;Samples;Min_cycle;Max_cycle;Signal;HPM_P1;HPM_P2
2022/05/28 00:01:11;;;;;;;;;0.75;0.75;;;;;14.83;100.00;100785.19;3723423;37;20524;-63
2022/05/28 00:03:39;;;;;;;;;1.25;1.25;;;;;14.74;100.00;100776.34;3723381;37;20544;-64
2022/05/28 00:06:21;;;;;;;;;1.00;1.00;;;;;14.74;100.00;100787.25;3723888;37;20536;-63
2022/05/28 00:08:49;;;;;;;;;0.25;0.00;;;;;14.64;100.00;100796.84;3723909;37;20795;-63
2022/05/28 00:11:23;;;;;;;;;1.25;0.25;;;;;14.54;100.00;100813.63;3723806;37;20721;-64
2022/05/28 00:13:51;;;;;;;;;1.00;0.50;;;;;14.54;100.00;100832.69;3723718;37;20354;-63
2022/05/28 00:16:20;;;;;;;;;0.50;0.25;;;;;14.38;100.00;100841.16;3723709;37;20500;-64
2022/05/28 00:18:49;;;;;;;;;1.25;1.25;;;;;14.44;100.00;100846.66;3723697;37;20776;-64
2022/05/28 00:21:16;;;;;;;;;0.25;0.25;;;;;14.31;100.00;100849.28;3722988;38;20644;-64
2022/05/28 00:23:44;;;;;;;;;0.50;0.50;;;;;14.17;100.00;100853.81;3722958;37;20598;-63
2022/05/28 00:26:13;;;;;;;;;0.25;0.25;;;;;14.10;100.00;100854.78;3723672;38;20545;-63
2022/05/28 00:28:41;;;;;;;;;1.00;1.00;;;;;14.08;100.00;100873.19;3723745;37;20471;-63
2022/05/28 00:31:09;;;;;;;;;1.00;1.00;;;;;14.07;100.00;100866.91;3723812;37;20643;-64
2022/05/28 00:33:37;;;;;;;;;0.00;0.00;;;;;13.96;100.00;100867.50;3723597;37;20459;-63
2022/05/28 00:36:09;;;;;;;;;0.50;0.50;;;;;13.91;100.00;100854.47;3723612;37;20562;-65
2022/05/28 00:38:38;;;;;;;;;0.25;0.25;;;;;13.84;100.00;100855.47;3723680;37;20479;-64
2022/05/28 00:41:05;;;;;;;;;1.25;0.25;;;;;13.81;100.00;100856.69;3723106;37;20479;-63
2022/05/28 00:43:33;;;;;;;;;0.25;0.25;;;;;13.85;100.00;100859.88;3723776;38;20569;-64
2022/05/28 00:46:27;;;;;;;;;0.25;0.25;;;;;13.87;100.00;100865.97;3723893;37;20480;-64
2022/05/28 00:48:58;;;;;;;;;0.25;0.25;;;;;14.00;100.00;100866.06;3723784;37;20485;-63
2022/05/28 00:51:29;;;;;;;;;0.00;0.00;;;;;13.98;100.00;100856.41;3723821;37;20386;-62
2022/05/28 00:54:01;;;;;;;;;2.00;1.25;;;;;13.91;100.00;100865.38;3723999;38;20657;-63
2022/05/28 00:56:28;;;;;;;;;0.25;0.25;;;;;13.69;100.00;100849.28;3723286;37;20764;-65
2022/05/28 00:58:58;;;;;;;;;0.75;0.75;;;;;13.61;100.00;100852.12;3724016;37;20520;-64
2022/05/28 01:01:30;;;;;;;;;0.00;0.00;;;;;13.46;100.00;100850.34;3723907;38;20506;-64
2022/05/28 01:04:58;;;;;;;;;0.00;0.00;;;;;13.47;100.00;100835.72;3724167;38;20527;-64
2022/05/28 01:07:42;;;;;;;;;1.75;1.75;;;;;13.44;100.00;100843.44;3723350;38;20593;-63
2022/05/28 01:10:29;;;;;;;;;0.00;0.00;;;;;13.47;100.00;100846.59;3723810;38;20426;-63
2022/05/28 01:13:20;;;;;;;;;1.00;1.00;;;;;13.39;100.00;100843.19;3723746;37;20533;-62
2022/05/28 01:15:53;;;;;;;;;0.00;0.00;;;;;13.38;100.00;100836.91;3723801;37;20768;-62
2022/05/28 01:18:34;;;;;;;;;0.50;0.50;;;;;13.26;100.00;100841.16;3723756;37;20678;-62
2022/05/28 01:21:13;;;;;;;;;2.00;2.00;;;;;13.15;100.00;100834.34;3723004;37;20485;-63
2022/05/28 01:24:14;;;;;;;;;0.00;0.00;;;;;13.01;100.00;100815.38;3723863;37;20527;-63
2022/05/28 01:26:57;;;;;;;;;0.00;0.00;;;;;13.05;100.00;100801.19;3723826;38;20423;-62
2022/05/28 01:29:30;;;;;;;;;0.00;0.00;;;;;13.11;100.00;100805.84;3723745;38;20472;-62
2022/05/28 01:32:00;;;;;;;;;0.00;0.00;;;;;13.15;100.00;100807.16;3723786;38;20385;-63
2022/05/28 01:34:30;;;;;;;;;0.00;0.00;;;;;13.08;100.00;100799.97;3723781;38;20396;-62
2022/05/28 01:37:01;;;;;;;;;0.00;0.00;;;;;13.12;100.00;100806.69;3723167;37;20635;-63
2022/05/28 01:39:30;;;;;;;;;0.25;0.25;;;;;13.08;100.00;100810.84;3723154;37;20487;-63
2022/05/28 01:41:58;;;;;;;;;0.00;0.00;;;;;13.05;100.00;100817.50;3723385;37;20489;-63
2022/05/28 01:44:27;;;;;;;;;0.00;0.00;;;;;12.97;100.00;100819.53;3724260;38;20505;-64
2022/05/28 01:46:56;;;;;;;;;0.00;0.00;;;;;12.92;100.00;100815.50;3723306;37;20461;-64
2022/05/28 01:49:25;;;;;;;;;0.25;0.25;;;;;12.91;100.00;100813.84;3724019;38;20516;-63
2022/05/28 01:51:58;;;;;;;;;0.00;0.00;;;;;12.88;100.00;100816.94;3724259;37;20366;-63
2022/05/28 01:54:33;;;;;;;;;0.25;0.25;;;;;12.87;100.00;100817.97;3723422;37;20504;-62
2022/05/28 01:57:02;;;;;;;;;0.75;0.75;;;;;12.91;100.00;100808.41;3723911;38;20348;-64
2022/05/28 01:59:33;;;;;;;;;1.00;1.00;;;;;13.00;100.00;100806.37;3723820;37;20363;-63
2022/05/28 02:02:03;;;;;;;;;0.00;0.00;;;;;13.03;100.00;100797.00;3723938;37;20567;-62
2022/05/28 02:04:31;;;;;;;;;0.00;0.00;;;;;12.91;100.00;100797.53;3723930;37;20349;-63
2022/05/28 02:06:59;;;;;;;;;0.25;0.25;;;;;12.86;100.00;100791.00;3723906;38;20241;-63
2022/05/28 02:09:33;;;;;;;;;0.25;0.25;;;;;12.84;100.00;100784.91;3723708;38;20446;-63
2022/05/28 02:12:32;;;;;;;;;1.25;0.25;;;;;12.83;100.00;100778.63;3723767;37;20337;-61
2022/05/28 02:15:27;;;;;;;;;1.00;1.00;;;;;12.83;100.00;100784.06;3723240;38;20335;-63
2022/05/28 02:18:09;;;;;;;;;0.75;0.50;;;;;12.94;100.00;100788.16;3723739;38;20456;-63
2022/05/28 02:20:49;;;;;;;;;1.75;1.25;;;;;12.83;100.00;100794.94;3723109;38;20444;-63
2022/05/28 02:23:45;;;;;;;;;0.25;0.25;;;;;12.78;100.00;100788.41;3723791;37;21496;-64
2022/05/28 02:26:27;;;;;;;;;0.25;0.25;;;;;12.65;100.00;100799.94;3722708;37;21537;-63
2022/05/28 02:28:56;;;;;;;;;1.00;1.00;;;;;12.52;100.00;100805.22;3723537;38;21581;-63
2022/05/28 02:31:29;;;;;;;;;0.25;0.25;;;;;12.20;100.00;100817.34;3723678;38;21320;-63
2022/05/28 02:33:57;;;;;;;;;0.50;0.50;;;;;12.10;100.00;100833.91;3723367;37;20586;-62
2022/05/28 02:36:25;;;;;;;;;1.25;1.25;;;;;12.08;100.00;100835.12;3723037;38;21457;-64
2022/05/28 02:38:53;;;;;;;;;1.25;1.25;;;;;12.01;100.00;100837.72;3722808;38;21397;-62
2022/05/28 02:41:21;;;;;;;;;1.50;1.50;;;;;11.87;100.00;100833.16;3723575;37;21445;-63
2022/05/28 02:43:49;;;;;;;;;2.00;2.00;;;;;11.83;100.00;100832.69;3723689;37;21440;-63
2022/05/28 02:46:16;;;;;;;;;2.00;2.00;;;;;11.71;100.00;100822.44;3722948;37;21466;-64
2022/05/28 02:48:45;;;;;;;;;1.25;1.00;;;;;11.72;100.00;100832.25;3723653;37;21394;-64
2022/05/28 02:51:15;;;;;;;;;1.25;1.25;;;;;11.82;100.00;100824.72;3723850;38;21437;-64
2022/05/28 02:53:43;;;;;;;;;1.00;1.00;;;;;11.88;100.00;100819.41;3723806;37;21388;-64
2022/05/28 02:56:11;;;;;;;;;1.00;1.00;;;;;11.93;100.00;100805.28;3723007;37;21391;-64
2022/05/28 02:58:40;;;;;;;;;2.00;2.00;;;;;11.98;100.00;100819.13;3723910;38;21322;-64
2022/05/28 03:01:28;;;;;;;;;0.50;0.50;;;;;12.05;100.00;100833.63;3723853;38;21386;-62
2022/05/28 03:03:57;;;;;;;;;1.50;1.50;;;;;12.18;100.00;100830.25;3723726;38;21442;-63
2022/05/28 03:06:24;;;;;;;;;1.25;1.25;;;;;12.27;100.00;100834.56;3723635;38;21254;-63
2022/05/28 03:08:52;;;;;;;;;1.25;1.25;;;;;12.04;100.00;100833.81;3723750;38;21279;-63
2022/05/28 03:11:20;;;;;;;;;1.00;1.00;;;;;11.95;100.00;100833.06;3723585;37;21435;-62
2022/05/28 03:13:48;;;;;;;;;1.00;1.00;;;;;11.96;100.00;100832.00;3723780;37;21292;-63
2022/05/28 03:16:15;;;;;;;;;2.00;1.00;;;;;12.03;100.00;100838.38;3722963;38;21325;-62
2022/05/28 03:18:43;;;;;;;;;1.00;1.00;;;;;12.06;100.00;100843.44;3723667;37;21380;-65
2022/05/28 03:21:10;;;;;;;;;1.00;1.00;;;;;12.07;100.00;100842.41;3723878;37;21349;-64
2022/05/28 03:23:38;;;;;;;;;1.00;1.00;;;;;12.01;100.00;100845.88;3723754;37;21348;-63
2022/05/28 03:26:17;;;;;;;;;0.00;0.00;;;;;11.98;100.00;100842.69;3723807;38;21238;-63
2022/05/28 03:28:46;;;;;;;;;1.00;0.25;;;;;12.06;100.00;100838.00;3723835;37;21338;-63
2022/05/28 03:31:13;;;;;;;;;0.25;0.25;;;;;12.18;100.00;100833.81;3723940;38;21325;-64
2022/05/28 03:33:41;;;;;;;;;1.00;1.00;;;;;12.43;100.00;100833.53;3723122;38;21350;-64
2022/05/28 03:36:09;;;;;;;;;2.75;0.00;;;;;12.66;100.00;100838.81;3723841;37;21480;-64
2022/05/28 03:38:37;;;;;;;;;6.00;5.00;;;;;12.93;100.00;100838.09;3723881;37;21350;-64
2022/05/28 03:41:05;;;;;;;;;1.00;1.00;;;;;13.05;100.00;100822.94;3722931;38;21313;-63
2022/05/28 03:43:32;;;;;;;;;0.00;0.00;;;;;13.19;100.00;100818.50;3723652;37;21233;-64
2022/05/28 03:45:59;;;;;;;;;1.00;0.25;;;;;13.36;100.00;100819.94;3723982;37;21375;-64
2022/05/28 03:48:28;;;;;;;;;0.25;0.25;;;;;13.51;100.00;100828.03;3723684;38;21325;-63
2022/05/28 03:50:56;;;;;;;;;0.75;0.75;;;;;13.67;100.00;100835.88;3722980;37;21207;-64
2022/05/28 03:53:24;;;;;;;;;0.25;0.25;;;;;14.01;100.00;100834.25;3723158;38;21205;-64
2022/05/28 03:55:51;;;;;;;;;0.50;0.50;;;;;13.91;100.00;100834.59;3723726;38;21214;-65
2022/05/28 03:58:19;;;;;;;;;1.25;1.25;;;;;14.08;100.00;100827.78;3723931;38;21421;-64
2022/05/28 04:00:46;;;;;;;;;2.00;2.00;;;;;14.42;100.00;100831.56;3723701;37;21181;-64
2022/05/28 04:03:13;;;;;;;;;1.25;1.25;;;;;14.57;100.00;100834.97;3724176;37;21304;-65
2022/05/28 04:05:40;;;;;;;;;2.00;1.00;;;;;14.41;100.00;100838.03;3723088;38;21198;-63
2022/05/28 04:08:08;;;;;;;;;2.00;2.00;;;;;14.50;100.00;100834.13;3723780;37;21244;-62
2022/05/28 04:10:35;;;;;;;;;2.75;2.75;;;;;14.81;100.00;100803.63;3723664;37;21207;-62
2022/05/28 04:13:03;;;;;;;;;3.00;2.75;;;;;15.10;100.00;100802.41;3723778;37;21275;-64
2022/05/28 04:15:32;;;;;;;;;5.00;5.00;;;;;15.35;100.00;100794.47;3723955;37;21178;-64
2022/05/28 04:17:59;;;;;;;;;4.00;4.00;;;;;15.51;100.00;100791.34;3723083;37;21192;-62
2022/05/28 04:20:28;;;;;;;;;4.25;4.00;;;;;15.61;100.00;100772.66;3723894;38;21176;-63
2022/05/28 04:22:55;;;;;;;;;2.00;2.00;;;;;15.44;100.00;100788.63;3723593;37;21179;-63
2022/05/28 04:25:22;;;;;;;;;2.00;2.00;;;;;15.23;100.00;100810.63;3723619;38;21273;-63
2022/05/28 04:27:50;;;;;;;;;1.00;1.00;;;;;15.13;100.00;100802.00;3723991;38;21413;-64
2022/05/28 04:30:18;;;;;;;;;1.75;1.75;;;;;15.18;100.00;100799.50;3723880;37;21550;-62
2022/05/28 04:32:45;;;;;;;;;2.00;2.00;;;;;15.38;100.00;100792.19;3723020;37;21271;-62
2022/05/28 04:35:13;;;;;;;;;2.00;2.00;;;;;15.53;100.00;100792.81;3723443;38;21176;-65
2022/05/28 04:37:41;;;;;;;;;1.00;0.00;;;;;15.57;100.00;100798.72;3724332;37;21223;-65
2022/05/28 04:40:10;;;;;;;;;2.00;2.00;;;;;15.50;100.00;100795.12;3724204;38;21503;-59
2022/05/28 04:42:37;;;;;;;;;1.00;1.00;;;;;15.45;100.00;100805.81;3723201;37;21511;-60
2022/05/28 04:45:06;;;;;;;;;2.00;1.00;;;;;15.51;100.00;100808.56;3723592;38;21354;-61
2022/05/28 04:47:33;;;;;;;;;1.00;1.00;;;;;15.71;100.00;100797.62;3723709;37;21301;-62
2022/05/28 04:50:00;;;;;;;;;2.00;2.00;;;;;15.99;100.00;100796.56;3722871;38;21223;-61
2022/05/28 04:52:28;;;;;;;;;1.50;1.50;;;;;16.11;100.00;100808.50;3723109;38;21277;-62
2022/05/28 04:54:55;;;;;;;;;3.50;3.50;;;;;16.41;100.00;100809.66;3723656;38;21231;-62
2022/05/28 04:57:23;;;;;;;;;2.50;2.50;;;;;16.17;100.00;100813.09;3722813;37;21250;-59
2022/05/28 04:59:50;;;;;;;;;3.00;3.00;;;;;16.13;100.00;100809.94;3723036;37;21160;-62
2022/05/28 05:02:18;;;;;;;;;3.00;3.00;;;;;16.41;100.00;100819.75;3723786;37;21122;-61
2022/05/28 05:04:45;;;;;;;;;2.75;2.25;;;;;16.54;100.00;100819.69;3723885;38;21175;-63
2022/05/28 05:07:13;;;;;;;;;12.00;12.00;;;;;16.61;100.00;100817.78;3724517;38;21182;-61
2022/05/28 05:09:41;;;;;;;;;1.00;1.00;;;;;16.42;100.00;100803.13;3723721;38;21305;-60
2022/05/28 05:12:09;;;;;;;;;0.25;0.25;;;;;16.46;100.00;100800.81;3722926;38;21502;-57
2022/05/28 05:14:37;;;;;;;;;2.75;2.00;;;;;16.66;100.00;100801.56;3723754;37;21329;-55
2022/05/28 05:17:06;;;;;;;;;0.25;0.00;;;;;16.77;100.00;100800.88;3723739;38;21294;-57
2022/05/28 05:19:34;;;;;;;;;0.00;0.00;;;;;16.67;100.00;100805.97;3723619;37;21184;-57
2022/05/28 05:22:02;;;;;;;;;0.00;0.00;;;;;16.49;100.00;100812.16;3723496;37;21448;-62
2022/05/28 05:24:29;;;;;;;;;1.00;1.00;;;;;16.55;100.00;100805.81;3723818;37;21190;-57
2022/05/28 05:26:56;;;;;;;;;1.00;1.00;;;;;16.48;100.00;100805.00;3723257;37;21200;-58
2022/05/28 05:29:24;;;;;;;;;0.00;0.00;;;;;16.31;100.00;100794.78;3724031;37;21214;-59
2022/05/28 05:31:51;;;;;;;;;0.00;0.00;;;;;16.57;100.00;100819.28;3723439;37;21178;-63
2022/05/28 05:34:19;;;;;;;;;1.00;1.00;;;;;16.14;100.00;100818.97;3723785;37;21175;-62
2022/05/28 05:36:46;;;;;;;;;1.00;1.00;;;;;16.07;100.00;100827.19;3723137;37;21284;-60
2022/05/28 05:39:13;;;;;;;;;1.00;0.00;;;;;16.10;100.00;100815.84;3722947;38;21184;-58
2022/05/28 05:41:42;;;;;;;;;0.00;0.00;;;;;16.18;100.00;100815.59;3723708;37;21279;-59
2022/05/28 05:44:10;;;;;;;;;1.75;1.75;;;;;16.15;100.00;100812.47;3723781;37;21304;-60
2022/05/28 05:46:42;;;;;;;;;1.00;1.00;;;;;16.19;100.00;100811.81;3723762;37;21221;-59
2022/05/28 05:49:11;;;;;;;;;2.00;1.00;;;;;16.41;100.00;100811.53;3723793;37;21164;-60
2022/05/28 05:51:46;;;;;;;;;2.75;2.75;;;;;16.54;100.00;100785.00;3722821;37;21154;-59
2022/05/28 05:54:15;;;;;;;;;0.00;0.00;;;;;16.70;100.00;100794.62;3723719;38;21067;-58
2022/05/28 05:56:43;;;;;;;;;1.00;1.00;;;;;16.84;100.00;100796.22;3723845;37;21270;-58
2022/05/28 05:59:11;;;;;;;;;1.00;1.00;;;;;16.94;100.00;100790.28;3723739;37;21263;-59
2022/05/28 06:01:40;;;;;;;;;1.00;1.00;;;;;17.42;100.00;100787.00;3723819;38;21141;-60
2022/05/28 06:04:08;;;;;;;;;2.50;1.00;;;;;17.19;100.00;100791.16;3723898;38;21239;-58
2022/05/28 06:06:36;;;;;;;;;1.00;1.00;;;;;17.14;100.00;100793.75;3724001;38;21249;-59
2022/05/28 06:09:03;;;;;;;;;1.00;1.00;;;;;17.29;100.00;100785.19;3723980;38;21306;-59
2022/05/28 06:11:31;;;;;;;;;0.00;0.00;;;;;17.29;100.00;100792.56;3723926;38;21176;-61
2022/05/28 06:13:59;;;;;;;;;0.75;0.75;;;;;17.46;100.00;100782.75;3723232;38;21220;-59
2022/05/28 06:16:26;;;;;;;;;0.25;0.25;;;;;17.58;99.14;100791.06;3724007;37;21180;-59
2022/05/28 06:18:54;;;;;;;;;0.00;0.00;;;;;17.51;97.03;100788.38;3723897;37;21243;-61
2022/05/28 06:21:21;;;;;;;;;2.00;1.00;;;;;17.79;96.91;100786.03;3723857;38;21194;-61
2022/05/28 06:23:49;;;;;;;;;1.00;1.00;;;;;18.18;95.85;100776.59;3723780;38;21331;-58
2022/05/28 06:26:16;;;;;;;;;0.25;0.25;;;;;18.08;94.69;100775.44;3723853;38;21153;-60
2022/05/28 06:28:44;;;;;;;;;0.00;0.00;;;;;17.90;96.12;100784.47;3723728;37;21099;-58
2022/05/28 06:31:13;;;;;;;;;1.50;1.00;;;;;17.93;96.52;100784.00;3723860;37;21181;-61
2022/05/28 06:33:41;;;;;;;;;0.25;0.25;;;;;17.80;97.31;100787.72;3723763;38;21188;-58
2022/05/28 06:36:12;;;;;;;;;1.00;1.00;;;;;17.70;96.12;100786.56;3723207;37;21036;-60
2022/05/28 06:38:40;;;;;;;;;0.50;0.50;;;;;18.13;94.87;100778.31;3723688;37;21396;-60
2022/05/28 06:41:08;;;;;;;;;0.00;0.00;;;;;17.97;93.36;100790.72;3723788;37;21386;-56
2022/05/28 06:43:35;;;;;;;;;1.00;1.00;;;;;17.70;93.94;100792.03;3723818;37;21085;-57
2022/05/28 06:46:05;;;;;;;;;1.00;1.00;;;;;17.90;94.66;100795.41;3723822;38;21123;-60
2022/05/28 06:48:33;;;;;;;;;1.25;1.25;;;;;17.80;96.37;100779.50;3723982;37;21105;-58
2022/05/28 06:51:03;;;;;;;;;1.00;1.00;;;;;17.68;97.75;100789.50;3723951;38;21108;-57
2022/05/28 06:53:40;;;;;;;;;2.25;2.25;;;;;17.62;99.61;100792.31;3723670;37;21143;-59
2022/05/28 06:56:09;;;;;;;;;1.50;1.50;;;;;17.82;95.11;100795.69;3723783;38;21091;-61
2022/05/28 06:58:37;;;;;;;;;3.00;3.00;;;;;17.74;94.98;100787.78;3723960;37;21171;-60
2022/05/28 07:01:09;;;;;;;;;2.00;2.00;;;;;17.99;95.33;100794.06;3723977;38;20979;-59
2022/05/28 07:03:39;;;;;;;;;4.50;4.50;;;;;18.37;94.99;100787.50;3723906;38;21113;-59
2022/05/28 07:06:06;;;;;;;;;5.25;5.00;;;;;18.61;93.12;100783.88;3723995;37;21137;-60
2022/05/28 07:08:35;;;;;;;;;6.00;5.50;;;;;18.94;89.41;100797.13;3723921;37;21181;-61
2022/05/28 07:11:05;;;;;;;;;6.00;6.00;;;;;18.58;88.91;100792.53;3723852;38;21069;-62
2022/05/28 07:13:35;;;;;;;;;5.00;5.00;;;;;18.72;87.60;100785.81;3723769;38;21104;-62
2022/05/28 07:16:05;;;;;;;;;4.00;4.00;;;;;18.68;88.34;100792.00;3723425;38;21049;-62
2022/05/28 07:18:33;;;;;;;;;2.50;2.25;;;;;18.60;88.16;100804.13;3723581;37;21046;-63
2022/05/28 07:21:01;;;;;;;;;3.75;3.75;;;;;18.29;90.97;100799.63;3723839;38;21004;-60
2022/05/28 07:23:30;;;;;;;;;2.50;2.50;;;;;18.49;92.87;100811.19;3723839;37;21055;-60
2022/05/28 07:25:59;;;;;;;;;4.00;3.25;;;;;18.28;92.54;100791.62;3723918;37;20938;-61
2022/05/28 07:28:33;;;;;;;;;4.00;4.00;;;;;18.39;90.38;100790.88;3723908;37;20963;-61
2022/05/28 07:31:08;;;;;;;;;2.00;2.00;;;;;18.13;92.10;100795.59;3723569;37;21015;-61
2022/05/28 07:33:42;;;;;;;;;2.00;2.00;;;;;18.27;92.22;100781.72;3723813;37;21025;-61
2022/05/28 07:36:12;;;;;;;;;3.00;3.00;;;;;18.33;90.80;100776.16;3723972;37;21046;-61
2022/05/28 07:38:40;;;;;;;;;2.00;2.00;;;;;18.75;89.48;100782.59;3724284;37;20935;-60
2022/05/28 07:41:14;;;;;;;;;2.75;1.00;;;;;18.87;83.76;100793.63;3723266;37;21013;-62
2022/05/28 07:43:42;;;;;;;;;1.00;1.00;;;;;19.15;84.12;100785.63;3723367;37;20902;-62
2022/05/28 07:46:12;;;;;;;;;1.00;1.00;;;;;19.17;84.00;100777.16;3723313;38;20996;-60
2022/05/28 07:48:40;;;;;;;;;0.75;0.75;;;;;19.62;83.17;100757.44;3723802;38;21046;-61
2022/05/28 07:51:12;;;;;;;;;1.00;1.00;;;;;19.64;79.49;100766.25;3722994;38;20985;-61
2022/05/28 07:53:42;;;;;;;;;1.25;1.00;;;;;19.46;82.07;100761.69;3723088;37;20992;-61
2022/05/28 07:56:12;;;;;;;;;1.00;1.00;;;;;19.44;83.20;100750.94;3723134;38;20961;-60
2022/05/28 07:58:41;;;;;;;;;0.00;0.00;;;;;19.10;86.46;100747.09;3723841;38;21166;-59
2022/05/28 08:01:21;;;;;;;;;1.00;1.00;;;;;19.21;84.05;100742.69;3723665;38;20952;-58
2022/05/28 08:03:49;;;;;;;;;2.00;1.25;;;;;19.44;86.34;100750.94;3723158;37;21192;-59
2022/05/28 08:06:17;;;;;;;;;1.25;1.25;;;;;19.93;85.06;100747.97;3724619;37;21165;-61
2022/05/28 08:08:45;;;;;;;;;2.00;1.00;;;;;19.46;83.99;100758.94;3723835;37;21065;-61
2022/05/28 08:11:13;;;;;;;;;2.00;2.00;;;;;18.98;86.16;100756.34;3723895;37;20940;-60
2022/05/28 08:13:43;;;;;;;;;1.00;1.00;;;;;18.75;86.58;100746.13;3723568;37;21031;-60
2022/05/28 08:16:11;;;;;;;;;1.25;1.25;;;;;18.68;88.42;100759.94;3723104;37;21004;-59
2022/05/28 08:18:39;;;;;;;;;3.75;3.75;;;;;18.88;90.19;100759.66;3723520;38;20972;-61
2022/05/28 08:23:54;;;;;;;;;2.75;2.00;;;;;19.05;91.06;100763.41;3724192;37;20966;-60
2022/05/28 08:26:22;;;;;;;;;2.75;2.75;;;;;19.03;90.69;100767.44;3723931;38;20973;-60
2022/05/28 08:28:51;;;;;;;;;2.00;2.00;;;;;18.74;92.37;100772.69;3723860;37;20921;-58
2022/05/28 08:31:19;;;;;;;;;2.00;2.00;;;;;18.79;93.54;100769.25;3723076;38;20820;-59
2022/05/28 08:33:47;;;;;;;;;0.75;0.75;;;;;18.39;95.99;100779.91;3723417;37;20993;-61
2022/05/28 08:36:15;;;;;;;;;2.00;2.00;;;;;18.32;96.51;100765.44;3723846;38;20961;-59
2022/05/28 08:38:43;;;;;;;;;2.00;2.00;;;;;17.95;99.62;100781.88;3723767;38;20857;-60
2022/05/28 08:41:14;;;;;;;;;1.50;1.50;;;;;17.87;100.00;100765.75;3723363;38;21207;-59
2022/05/28 08:44:21;;;;;;;;;0.75;0.75;;;;;17.75;100.00;100781.25;3724031;38;21006;-59
2022/05/28 08:47:13;;;;;;;;;1.00;1.00;;;;;17.71;100.00;100790.97;3723990;37;20997;-61
2022/05/28 08:49:41;;;;;;;;;1.25;1.25;;;;;17.50;100.00;100786.72;3723075;38;21093;-61
2022/05/28 08:52:31;;;;;;;;;1.75;1.75;;;;;17.23;100.00;100796.19;3723625;38;20914;-61
2022/05/28 08:55:10;;;;;;;;;2.25;1.25;;;;;17.01;100.00;100795.72;3723264;38;20974;-62
2022/05/28 08:58:12;;;;;;;;;2.00;1.75;;;;;16.92;100.00;100786.09;3724072;37;20967;-60
2022/05/28 09:01:19;;;;;;;;;0.75;0.75;;;;;17.08;100.00;100791.03;3724084;37;20878;-59
2022/05/28 09:03:54;;;;;;;;;2.50;2.50;;;;;17.29;100.00;100793.41;3723871;38;20864;-62
2022/05/28 09:06:41;;;;;;;;;5.00;4.00;;;;;17.44;100.00;100782.13;3723886;37;20893;-62
2022/05/28 09:09:12;;;;;;;;;2.00;2.00;;;;;17.57;100.00;100783.94;3723990;38;21023;-61
2022/05/28 09:12:01;;;;;;;;;2.25;2.25;;;;;17.93;100.00;100786.75;3724087;37;20897;-59
2022/05/28 09:14:35;;;;;;;;;2.00;2.00;;;;;17.85;100.00;100787.03;3723329;38;20952;-59
2022/05/28 09:17:32;;;;;;;;;2.00;1.75;;;;;17.82;100.00;100790.22;3723409;37;20775;-59
2022/05/28 09:20:28;;;;;;;;;3.00;3.00;;;;;18.13;100.00;100778.31;3723876;38;21087;-61
2022/05/28 09:22:56;;;;;;;;;2.00;1.25;;;;;18.32;100.00;100784.62;3723284;37;20865;-58
2022/05/28 09:25:26;;;;;;;;;1.75;1.75;;;;;18.22;100.00;100796.09;3724111;38;20877;-59
2022/05/28 09:28:26;;;;;;;;;1.75;1.75;;;;;18.18;100.00;100793.03;3724016;37;20776;-60
2022/05/28 09:31:29;;;;;;;;;2.00;2.00;;;;;18.53;99.26;100778.69;3723292;38;20840;-62
2022/05/28 09:34:29;;;;;;;;;1.75;1.75;;;;;18.74;96.10;100775.44;3723913;38;20868;-60
2022/05/28 09:37:34;;;;;;;;;1.00;1.00;;;;;18.82;93.58;100763.31;3723354;38;21039;-60
2022/05/28 09:40:25;;;;;;;;;1.00;1.00;;;;;18.96;92.46;100774.94;3725598;37;21056;-61
2022/05/28 09:43:47;;;;;;;;;1.00;1.00;;;;;19.26;89.88;100772.97;3723870;37;20942;-61
2022/05/28 09:46:41;;;;;;;;;1.75;1.75;;;;;19.21;89.69;100770.13;3723949;37;20787;-60
2022/05/28 09:49:23;;;;;;;;;1.25;1.25;;;;;19.21;84.59;100770.13;3723294;38;20850;-59
2022/05/28 09:52:10;;;;;;;;;0.75;0.75;;;;;19.32;85.93;100772.03;3724397;37;20894;-61
2022/05/28 09:54:38;;;;;;;;;1.00;1.00;;;;;19.21;83.45;100774.78;3723911;37;20750;-61
2022/05/28 09:57:23;;;;;;;;;3.00;3.00;;;;;19.30;83.08;100749.47;3723296;38;20904;-59
2022/05/28 10:00:03;;;;;;;;;1.00;1.00;;;;;19.00;83.53;100767.91;3722988;37;20971;-61
2022/05/28 10:04:28;;;;;;;;;1.00;1.00;;;;;18.67;82.90;100777.47;3723669;37;20835;-61
2022/05/28 10:05:41;;;;;;;;;1.75;1.75;;;;;18.69;84.39;100772.59;3723772;37;20833;-60
2022/05/28 10:08:12;;;;;;;;;0.50;0.50;;;;;18.66;88.14;100755.78;3723856;38;20804;-60
2022/05/28 10:10:40;;;;;;;;;1.50;1.50;;;;;18.73;88.01;100762.81;3723826;37;21016;-62
2022/05/28 10:13:19;;;;;;;;;2.00;2.00;;;;;18.71;87.60;100755.91;3723391;38;20990;-60
2022/05/28 10:15:55;;;;;;;;;1.75;1.75;;;;;18.38;86.98;100761.78;3722987;38;20788;-61
2022/05/28 10:18:47;;;;;;;;;1.00;0.50;;;;;18.45;84.70;100757.06;3723626;38;21005;-61
2022/05/28 10:21:33;;;;;;;;;1.50;1.50;;;;;18.36;87.32;100750.22;3723331;37;21050;-62
2022/05/28 10:24:05;;;;;;;;;1.25;1.25;;;;;18.52;89.28;100750.44;3723787;37;20793;-60
2022/05/28 10:26:49;;;;;;;;;2.50;1.75;;;;;18.71;88.87;100751.25;3723441;37;20763;-61
2022/05/28 10:29:20;;;;;;;;;3.00;2.00;;;;;18.53;88.39;100756.75;3723152;37;20865;-62
2022/05/28 10:31:50;;;;;;;;;2.75;1.75;;;;;18.44;89.18;100752.66;3723825;38;21066;-60
2022/05/28 10:34:38;;;;;;;;;2.50;2.50;;;;;18.54;90.31;100761.16;3723815;38;20867;-60
2022/05/28 10:37:14;;;;;;;;;4.00;3.00;;;;;18.63;90.63;100745.25;3723648;38;20811;-61
2022/05/28 10:39:43;;;;;;;;;2.75;2.75;;;;;18.78;86.65;100746.50;3724366;38;20696;-61
2022/05/28 10:42:13;;;;;;;;;3.00;3.00;;;;;18.70;86.75;100748.75;3724292;37;20834;-62
2022/05/28 10:44:43;;;;;;;;;3.50;3.50;;;;;18.49;89.24;100755.53;3723288;38;20716;-61
2022/05/28 10:47:49;;;;;;;;;2.00;2.00;;;;;18.36;86.71;100764.75;3723777;37;20907;-62
2022/05/28 10:50:32;;;;;;;;;2.75;2.75;;;;;18.17;88.43;100758.47;3724125;37;20823;-65
2022/05/28 10:53:39;;;;;;;;;2.25;2.25;;;;;18.46;90.04;100758.72;3723982;37;20875;-61
2022/05/28 10:56:45;;;;;;;;;2.50;2.50;;;;;18.39;85.98;100758.81;3724169;38;20644;-62
2022/05/28 10:59:46;;;;;;;;;4.50;4.50;;;;;18.37;86.32;100740.94;3724047;37;20790;-62
2022/05/28 11:03:08;;;;;;;;;2.00;2.00;;;;;18.25;87.58;100740.03;3724014;38;20638;-63
2022/05/28 11:06:24;;;;;;;;;3.00;3.00;;;;;18.10;88.29;100735.78;3723480;37;20635;-62
2022/05/28 11:09:15;;;;;;;;;2.50;2.50;;;;;18.12;89.14;100741.87;3723975;37;21264;-61
2022/05/28 11:12:30;;;;;;;;;1.50;1.50;;;;;18.10;89.31;100733.06;3724141;38;20740;-61
2022/05/28 11:15:26;;;;;;;;;1.00;1.00;;;;;18.30;89.55;100732.78;3727853;37;20645;-61
2022/05/28 11:18:32;;;;;;;;;3.00;3.00;;;;;18.15;88.95;100733.22;3723816;37;20668;-62
2022/05/28 11:21:31;;;;;;;;;0.00;0.00;;;;;17.93;92.56;100729.25;3724101;37;20710;-62
2022/05/28 11:24:48;;;;;;;;;2.50;2.50;;;;;17.66;94.37;100719.66;3724427;37;20904;-63
2022/05/28 11:27:58;;;;;;;;;4.00;4.00;;;;;17.77;97.38;100713.41;3723984;38;20931;-62
2022/05/28 11:30:42;;;;;;;;;3.75;3.00;;;;;17.87;94.39;100711.81;3724007;37;20866;-60
2022/05/28 11:33:37;;;;;;;;;2.50;2.50;;;;;17.96;96.40;100717.84;3723214;38;20719;-62
2022/05/28 11:36:13;;;;;;;;;1.75;1.75;;;;;17.84;92.02;100727.88;3723082;37;20538;-62
2022/05/28 11:39:03;;;;;;;;;2.75;2.00;;;;;17.75;93.02;100705.41;3723339;38;20691;-61
2022/05/28 11:41:49;;;;;;;;;2.00;2.00;;;;;17.65;96.11;100705.13;3724138;38;20780;-63
2022/05/28 11:44:38;;;;;;;;;3.50;3.50;;;;;17.67;94.06;100713.97;3723347;37;20595;-63
2022/05/28 11:47:38;;;;;;;;;3.00;3.00;;;;;17.65;96.99;100707.00;3723216;37;20784;-62
2022/05/28 11:53:36;;;;;;;;;2.75;2.25;;;;;17.65;93.89;100704.28;3723873;38;20512;-59
2022/05/28 11:56:12;;;;;;;;;0.75;0.75;;;;;17.73;93.98;100707.56;3724147;37;20854;-60
2022/05/28 11:58:59;;;;;;;;;2.25;2.25;;;;;17.78;96.51;100712.34;3723184;37;20554;-58
2022/05/28 12:01:37;;;;;;;;;3.75;2.75;;;;;17.83;95.69;100705.13;3723414;37;20562;-59